Time;durP1;ratioP1;P1;durP2;ratioP2;P2;SDS_P1;SDS_P2;PMS_P1;PMS_P2;Temp;Humidity;BMP_temperature;BMP_pressure;BME280_temperature;BME280_humidity;BME280_pressure;Samples;Min_cycle;Max_cycle;Signal;HPM_P1;HPM_P2
2021/10/20 00:01:27;;;;;;;6.65;4.18;;;;;;;;;;5091161;28;20033;-70
2021/10/20 00:04:13;;;;;;;9.02;4.65;;;;;;;;;;5074673;28;20497;-68
2021/10/20 00:06:59;;;;;;;7.95;4.25;;;;;;;;;;5066947;28;20032;-68
2021/10/20 00:09:44;;;;;;;11.65;4.13;;;;;;;;;;5078483;28;20395;-69
2021/10/20 00:12:29;;;;;;;8.13;4.50;;;;;;;;;;5077103;28;20048;-65
2021/10/20 00:15:17;;;;;;;6.30;4.18;;;;;;;;;;5068435;28;20455;-76
2021/10/20 00:18:02;;;;;;;6.03;3.88;;;;;;;;;;5071487;28;20527;-75
2021/10/20 00:20:47;;;;;;;6.28;3.92;;;;;;;;;;5083414;28;20032;-75
2021/10/20 00:23:33;;;;;;;6.97;3.97;;;;;;;;;;5076874;28;20060;-75
2021/10/20 00:26:18;;;;;;;7.60;3.90;;;;;;;;;;5060741;28;20029;-75
2021/10/20 00:29:03;;;;;;;8.95;3.58;;;;;;;;;;5066102;28;20027;-75
2021/10/20 00:31:49;;;;;;;7.65;4.30;;;;;;;;;;5070690;28;20035;-67
2021/10/20 00:34:34;;;;;;;6.43;4.25;;;;;;;;;;5072800;28;20021;-65
2021/10/20 00:37:19;;;;;;;7.55;4.38;;;;;;;;;;5071661;28;20025;-62
2021/10/20 00:40:05;;;;;;;7.00;4.05;;;;;;;;;;5073680;28;20036;-63
2021/10/20 00:42:50;;;;;;;6.95;3.80;;;;;;;;;;5071507;28;20020;-64
2021/10/20 00:45:36;;;;;;;6.90;3.92;;;;;;;;;;5066180;28;20106;-64
2021/10/20 00:48:21;;;;;;;9.18;4.22;;;;;;;;;;5077587;28;20031;-77
2021/10/20 00:51:06;;;;;;;5.50;3.88;;;;;;;;;;5077654;28;20032;-77
2021/10/20 00:53:57;;;;;;;7.05;3.75;;;;;;;;;;5071036;28;20345;-62
2021/10/20 00:56:42;;;;;;;8.40;4.30;;;;;;;;;;5082593;28;20036;-62
2021/10/20 00:59:28;;;;;;;7.88;3.60;;;;;;;;;;5059339;28;20465;-63
2021/10/20 01:02:13;;;;;;;5.63;3.42;;;;;;;;;;5058081;28;20032;-62
2021/10/20 01:04:58;;;;;;;8.05;4.68;;;;;;;;;;5057538;28;20024;-64
2021/10/20 01:07:43;;;;;;;8.00;4.30;;;;;;;;;;5068260;28;20111;-63
2021/10/20 01:10:29;;;;;;;8.65;4.50;;;;;;;;;;5058554;28;20124;-70
2021/10/20 01:13:14;;;;;;;7.38;4.22;;;;;;;;;;5068908;28;20030;-69
2021/10/20 01:16:00;;;;;;;7.90;4.90;;;;;;;;;;5062837;28;20031;-72
2021/10/20 01:18:46;;;;;;;7.03;3.83;;;;;;;;;;5059049;28;20044;-70
2021/10/20 01:21:31;;;;;;;6.63;3.90;;;;;;;;;;5066359;28;20153;-70
2021/10/20 01:24:18;;;;;;;6.47;3.90;;;;;;;;;;5053397;28;20029;-69
2021/10/20 01:27:03;;;;;;;5.32;3.53;;;;;;;;;;5059091;28;20158;-69
2021/10/20 01:29:49;;;;;;;9.07;3.75;;;;;;;;;;5059488;28;20029;-64
2021/10/20 01:32:34;;;;;;;6.68;4.15;;;;;;;;;;5045742;28;20083;-63
2021/10/20 01:35:19;;;;;;;6.03;3.70;;;;;;;;;;5064994;28;20028;-63
2021/10/20 01:38:05;;;;;;;4.78;3.35;;;;;;;;;;5057846;28;20053;-62
2021/10/20 01:40:50;;;;;;;6.57;4.40;;;;;;;;;;5060906;28;20045;-63
2021/10/20 01:43:42;;;;;;;6.35;3.78;;;;;;;;;;5057309;28;20515;-66
2021/10/20 01:46:28;;;;;;;8.20;4.25;;;;;;;;;;5059652;28;20053;-65
2021/10/20 01:49:13;;;;;;;8.27;4.10;;;;;;;;;;5055928;28;20483;-69
2021/10/20 01:51:58;;;;;;;7.70;3.47;;;;;;;;;;5076841;28;20044;-70
2021/10/20 01:54:44;;;;;;;6.95;4.40;;;;;;;;;;5060315;28;20056;-68
2021/10/20 01:57:29;;;;;;;10.18;4.50;;;;;;;;;;5052072;28;20369;-68
2021/10/20 02:00:14;;;;;;;6.47;4.07;;;;;;;;;;5061136;28;20083;-67
2021/10/20 02:02:59;;;;;;;6.90;3.83;;;;;;;;;;5058500;28;20088;-61
2021/10/20 02:05:45;;;;;;;6.70;4.18;;;;;;;;;;5054422;28;20056;-62
2021/10/20 02:08:31;;;;;;;6.28;3.53;;;;;;;;;;5059713;28;20032;-62
2021/10/20 02:11:19;;;;;;;7.03;3.58;;;;;;;;;;5062832;28;20049;-64
2021/10/20 02:14:06;;;;;;;4.97;3.83;;;;;;;;;;5058890;28;20029;-62
2021/10/20 02:16:51;;;;;;;6.03;3.83;;;;;;;;;;5052576;28;20040;-61
2021/10/20 02:19:36;;;;;;;5.40;3.55;;;;;;;;;;5046032;28;20032;-62
2021/10/20 02:22:22;;;;;;;8.60;3.80;;;;;;;;;;5056074;28;20472;-76
2021/10/20 02:25:08;;;;;;;7.15;3.80;;;;;;;;;;5071897;28;20522;-72
2021/10/20 02:27:53;;;;;;;6.40;3.38;;;;;;;;;;5072310;28;20028;-70
2021/10/20 02:30:39;;;;;;;8.60;3.83;;;;;;;;;;5056984;28;20036;-71
2021/10/20 02:33:24;;;;;;;5.70;3.40;;;;;;;;;;5054418;28;20020;-71
2021/10/20 02:36:09;;;;;;;5.97;3.50;;;;;;;;;;5064571;28;20025;-69
2021/10/20 02:38:55;;;;;;;7.18;3.50;;;;;;;;;;5058596;28;20044;-63
2021/10/20 02:41:40;;;;;;;5.20;3.17;;;;;;;;;;5057405;28;20534;-61
2021/10/20 02:44:25;;;;;;;5.60;3.47;;;;;;;;;;5042043;28;20091;-69
2021/10/20 02:47:10;;;;;;;5.03;3.83;;;;;;;;;;5052624;28;20072;-70
2021/10/20 02:49:55;;;;;;;7.97;3.42;;;;;;;;;;5057343;28;20479;-72
2021/10/20 02:52:41;;;;;;;5.55;3.58;;;;;;;;;;5052460;28;20036;-71
2021/10/20 02:55:26;;;;;;;6.65;3.83;;;;;;;;;;5059570;28;20025;-70
2021/10/20 02:58:11;;;;;;;8.20;4.25;;;;;;;;;;5053699;28;20028;-63
2021/10/20 03:00:57;;;;;;;6.57;4.20;;;;;;;;;;5058964;28;20058;-64
2021/10/20 03:03:42;;;;;;;7.00;4.22;;;;;;;;;;5058647;28;20608;-65
2021/10/20 03:06:27;;;;;;;5.45;3.97;;;;;;;;;;5060795;28;20510;-63
2021/10/20 03:09:13;;;;;;;8.40;4.32;;;;;;;;;;5067053;28;20032;-64
2021/10/20 03:11:58;;;;;;;5.30;3.60;;;;;;;;;;5059262;28;20032;-64
2021/10/20 03:14:43;;;;;;;6.97;3.78;;;;;;;;;;5059154;28;20040;-65
2021/10/20 03:17:28;;;;;;;6.47;3.70;;;;;;;;;;5043263;28;20025;-63
2021/10/20 03:20:14;;;;;;;7.28;4.07;;;;;;;;;;5058598;28;20111;-77
2021/10/20 03:22:59;;;;;;;7.00;3.85;;;;;;;;;;5061112;28;20491;-80
2021/10/20 03:25:44;;;;;;;6.30;3.25;;;;;;;;;;5059052;28;20689;-78
2021/10/20 03:28:29;;;;;;;6.97;3.67;;;;;;;;;;5068262;28;20166;-81
2021/10/20 03:31:16;;;;;;;5.32;3.63;;;;;;;;;;5055703;28;20502;-79
2021/10/20 03:34:02;;;;;;;8.35;3.47;;;;;;;;;;5051466;28;20498;-65
2021/10/20 03:36:47;;;;;;;5.68;3.63;;;;;;;;;;5058705;28;20115;-66
2021/10/20 03:39:33;;;;;;;5.38;3.30;;;;;;;;;;5052705;28;20035;-68
2021/10/20 03:42:19;;;;;;;6.90;3.80;;;;;;;;;;5057795;28;20495;-67
2021/10/20 03:45:05;;;;;;;7.95;3.80;;;;;;;;;;5060850;28;20040;-64
2021/10/20 03:47:51;;;;;;;9.10;4.30;;;;;;;;;;5059788;28;20415;-64
2021/10/20 03:50:36;;;;;;;7.47;3.42;;;;;;;;;;5053810;28;20399;-67
2021/10/20 03:53:21;;;;;;;5.00;3.15;;;;;;;;;;5049732;28;20531;-69
2021/10/20 03:56:06;;;;;;;8.13;3.10;;;;;;;;;;5054176;28;20025;-64
2021/10/20 03:58:52;;;;;;;6.57;3.05;;;;;;;;;;5060817;28;20033;-64
2021/10/20 04:01:37;;;;;;;6.38;3.63;;;;;;;;;;5054118;28;20498;-64
2021/10/20 04:04:22;;;;;;;6.38;3.30;;;;;;;;;;5062016;28;20076;-65
2021/10/20 04:07:07;;;;;;;4.90;3.58;;;;;;;;;;5056873;28;20086;-65
2021/10/20 04:09:53;;;;;;;6.57;3.72;;;;;;;;;;5063241;28;20545;-62
2021/10/20 04:12:38;;;;;;;7.72;4.53;;;;;;;;;;5057996;28;20024;-76
2021/10/20 04:15:24;;;;;;;7.43;4.20;;;;;;;;;;5061210;28;20017;-70
2021/10/20 04:18:09;;;;;;;6.13;3.45;;;;;;;;;;5069640;28;20032;-69
2021/10/20 04:20:54;;;;;;;8.07;4.30;;;;;;;;;;5060685;28;20024;-69
2021/10/20 04:23:40;;;;;;;7.82;3.80;;;;;;;;;;5056332;28;20548;-71
2021/10/20 04:26:25;;;;;;;6.43;3.67;;;;;;;;;;5056288;28;20040;-71
2021/10/20 04:29:10;;;;;;;5.47;3.47;;;;;;;;;;5053753;28;20028;-72
2021/10/20 04:31:55;;;;;;;9.90;3.67;;;;;;;;;;5049584;28;20029;-65
2021/10/20 04:34:41;;;;;;;6.90;4.18;;;;;;;;;;5056929;28;20033;-65
2021/10/20 04:37:29;;;;;;;6.53;3.80;;;;;;;;;;5049879;28;20383;-63
2021/10/20 04:40:14;;;;;;;8.18;3.75;;;;;;;;;;5061607;28;20119;-63
2021/10/20 04:42:59;;;;;;;8.32;3.60;;;;;;;;;;5060216;28;20028;-63
2021/10/20 04:45:45;;;;;;;5.85;3.13;;;;;;;;;;5057923;28;20416;-63
2021/10/20 04:48:30;;;;;;;7.13;3.42;;;;;;;;;;5054607;28;20066;-69
2021/10/20 04:51:15;;;;;;;6.85;3.60;;;;;;;;;;5062187;28;20468;-66
2021/10/20 04:54:00;;;;;;;7.10;4.15;;;;;;;;;;5053128;28;20036;-62
2021/10/20 04:56:46;;;;;;;8.20;3.47;;;;;;;;;;5059038;28;20472;-64
2021/10/20 04:59:33;;;;;;;6.75;4.30;;;;;;;;;;5064296;28;20242;-63
2021/10/20 05:02:18;;;;;;;6.50;3.70;;;;;;;;;;5057743;28;20036;-65
2021/10/20 05:05:05;;;;;;;9.00;4.28;;;;;;;;;;5057042;28;20039;-66
2021/10/20 05:07:51;;;;;;;6.88;3.72;;;;;;;;;;5061757;28;20620;-68
2021/10/20 05:10:38;;;;;;;7.07;4.85;;;;;;;;;;5070232;28;20028;-64
2021/10/20 05:13:23;;;;;;;7.05;4.50;;;;;;;;;;5056043;28;20025;-65
2021/10/20 05:16:09;;;;;;;7.25;3.95;;;;;;;;;;5062172;28;20055;-64
2021/10/20 05:18:54;;;;;;;7.18;4.60;;;;;;;;;;5058516;28;20029;-67
2021/10/20 05:21:40;;;;;;;8.00;4.85;;;;;;;;;;5058747;28;20028;-63
2021/10/20 05:24:25;;;;;;;8.65;5.50;;;;;;;;;;5065851;28;20415;-68
2021/10/20 05:27:11;;;;;;;8.85;5.57;;;;;;;;;;5061843;28;20036;-61
2021/10/20 05:29:57;;;;;;;8.45;5.00;;;;;;;;;;5043934;28;20071;-66
2021/10/20 05:32:43;;;;;;;8.65;4.05;;;;;;;;;;5062014;28;20041;-67
2021/10/20 05:35:28;;;;;;;7.53;4.38;;;;;;;;;;5049722;28;20040;-65
2021/10/20 05:38:13;;;;;;;7.68;4.35;;;;;;;;;;5064677;28;20037;-66
2021/10/20 05:40:58;;;;;;;10.48;4.43;;;;;;;;;;5061505;28;20481;-64
2021/10/20 05:43:44;;;;;;;7.10;3.75;;;;;;;;;;5068532;28;20028;-76
2021/10/20 05:46:29;;;;;;;10.50;4.55;;;;;;;;;;5072757;28;20045;-67
2021/10/20 05:49:14;;;;;;;9.30;3.65;;;;;;;;;;5066898;28;20111;-64
2021/10/20 05:51:59;;;;;;;7.72;4.18;;;;;;;;;;5065215;28;20031;-65
2021/10/20 05:54:44;;;;;;;8.27;3.83;;;;;;;;;;5061698;28;20033;-68
2021/10/20 05:57:30;;;;;;;7.47;3.80;;;;;;;;;;5060094;28;20032;-66
2021/10/20 06:00:15;;;;;;;7.03;3.75;;;;;;;;;;5064569;28;20157;-68
2021/10/20 06:03:01;;;;;;;9.48;3.88;;;;;;;;;;5063888;28;20048;-70
2021/10/20 06:05:46;;;;;;;6.53;3.88;;;;;;;;;;5057876;28;20476;-75
2021/10/20 06:08:31;;;;;;;8.52;3.75;;;;;;;;;;5064556;28;20123;-77
2021/10/20 06:11:17;;;;;;;8.20;3.90;;;;;;;;;;5060360;28;20421;-77
2021/10/20 06:14:02;;;;;;;7.95;4.45;;;;;;;;;;5058796;28;20120;-75
2021/10/20 06:16:48;;;;;;;9.20;4.70;;;;;;;;;;5060792;28;20024;-76
2021/10/20 06:19:33;;;;;;;8.57;4.60;;;;;;;;;;5062951;28;20029;-75
2021/10/20 06:22:18;;;;;;;9.45;4.60;;;;;;;;;;5061437;28;20021;-67
2021/10/20 06:25:04;;;;;;;9.85;4.60;;;;;;;;;;5064488;28;20063;-76
2021/10/20 06:27:49;;;;;;;7.43;4.35;;;;;;;;;;5072054;28;20036;-76
2021/10/20 06:30:34;;;;;;;9.80;4.97;;;;;;;;;;5064064;28;20068;-76
2021/10/20 06:33:19;;;;;;;9.68;4.47;;;;;;;;;;5057734;28;20456;-75
2021/10/20 06:36:05;;;;;;;9.18;4.68;;;;;;;;;;5059393;28;20060;-76
2021/10/20 06:38:50;;;;;;;10.02;5.20;;;;;;;;;;5066351;28;20024;-62
2021/10/20 06:41:35;;;;;;;7.35;4.55;;;;;;;;;;5061985;28;20104;-66
2021/10/20 06:44:20;;;;;;;11.57;5.20;;;;;;;;;;5073397;28;20116;-64
2021/10/20 06:47:06;;;;;;;9.55;4.38;;;;;;;;;;5049717;28;20049;-64
2021/10/20 06:49:51;;;;;;;7.97;4.22;;;;;;;;;;5061999;28;20032;-65
2021/10/20 06:52:37;;;;;;;8.65;5.45;;;;;;;;;;5058022;28;20540;-65
2021/10/20 06:55:22;;;;;;;12.13;4.20;;;;;;;;;;5053972;28;20025;-67
2021/10/20 06:58:07;;;;;;;9.60;4.60;;;;;;;;;;5052691;28;20056;-67
2021/10/20 07:00:53;;;;;;;11.38;5.03;;;;;;;;;;5061489;28;20478;-61
2021/10/20 07:03:38;;;;;;;9.02;4.55;;;;;;;;;;5055426;28;20032;-62
2021/10/20 07:06:27;;;;;;;8.75;4.55;;;;;;;;;;5054930;28;20025;-62
2021/10/20 07:09:12;;;;;;;10.50;5.00;;;;;;;;;;5060374;28;20027;-62
2021/10/20 07:12:00;;;;;;;8.57;4.40;;;;;;;;;;5060998;28;20017;-61
2021/10/20 07:14:47;;;;;;;8.25;4.35;;;;;;;;;;5059017;28;20107;-63
2021/10/20 07:17:32;;;;;;;11.05;4.50;;;;;;;;;;5076370;28;20043;-68
2021/10/20 07:20:17;;;;;;;8.25;4.65;;;;;;;;;;5054918;28;20028;-65
2021/10/20 07:23:02;;;;;;;9.45;5.47;;;;;;;;;;5066117;28;20435;-63
2021/10/20 07:25:48;;;;;;;10.02;5.38;;;;;;;;;;5044317;28;20098;-63
2021/10/20 07:28:33;;;;;;;7.68;5.40;;;;;;;;;;5055755;28;20043;-62
2021/10/20 07:31:18;;;;;;;13.35;5.68;;;;;;;;;;5061317;28;20024;-63
2021/10/20 07:34:03;;;;;;;9.48;6.38;;;;;;;;;;5072430;28;20033;-61
2021/10/20 07:36:50;;;;;;;9.43;6.65;;;;;;;;;;5066644;28;20033;-59
2021/10/20 07:39:35;;;;;;;12.88;6.60;;;;;;;;;;5058623;28;20059;-62
2021/10/20 07:42:21;;;;;;;12.30;5.90;;;;;;;;;;5062874;28;20103;-60
2021/10/20 07:45:07;;;;;;;9.30;5.40;;;;;;;;;;5058363;28;20056;-63
2021/10/20 07:47:52;;;;;;;8.75;5.35;;;;;;;;;;5061908;28;20075;-60
2021/10/20 07:50:39;;;;;;;8.70;4.18;;;;;;;;;;5054617;28;20727;-60
2021/10/20 07:53:24;;;;;;;11.98;5.20;;;;;;;;;;5072097;28;20103;-71
2021/10/20 07:56:09;;;;;;;8.13;4.40;;;;;;;;;;5061786;28;20032;-62
2021/10/20 07:58:54;;;;;;;7.85;5.13;;;;;;;;;;5052408;28;20059;-63
2021/10/20 08:01:40;;;;;;;6.07;4.20;;;;;;;;;;5056975;28;20111;-63
2021/10/20 08:04:25;;;;;;;7.55;4.28;;;;;;;;;;5062932;28;20033;-62
2021/10/20 08:07:10;;;;;;;8.98;4.47;;;;;;;;;;5065284;28;20570;-63
2021/10/20 08:09:55;;;;;;;8.90;4.30;;;;;;;;;;5062495;28;20021;-65
2021/10/20 08:12:41;;;;;;;8.80;3.75;;;;;;;;;;5067368;28;20064;-63
2021/10/20 08:15:27;;;;;;;6.80;4.00;;;;;;;;;;5063079;28;20350;-67
2021/10/20 08:18:13;;;;;;;6.95;4.40;;;;;;;;;;5060439;28;20104;-66
2021/10/20 08:20:58;;;;;;;5.68;4.10;;;;;;;;;;5060967;28;20072;-67
2021/10/20 08:23:43;;;;;;;8.50;4.80;;;;;;;;;;5068455;28;20336;-67
2021/10/20 08:26:29;;;;;;;6.65;4.30;;;;;;;;;;5047083;28;20037;-68
2021/10/20 08:29:14;;;;;;;9.45;5.00;;;;;;;;;;5063137;28;20020;-64
2021/10/20 08:32:00;;;;;;;5.43;3.33;;;;;;;;;;5050498;28;20110;-64
2021/10/20 08:34:46;;;;;;;6.50;4.20;;;;;;;;;;5063050;28;20033;-64
2021/10/20 08:37:32;;;;;;;6.40;3.38;;;;;;;;;;5060195;28;20033;-64
2021/10/20 08:40:17;;;;;;;5.15;3.20;;;;;;;;;;5060799;28;20190;-64
2021/10/20 08:43:03;;;;;;;6.55;3.40;;;;;;;;;;5061025;28;20175;-64
2021/10/20 08:45:49;;;;;;;4.90;3.13;;;;;;;;;;5062042;28;20419;-64
2021/10/20 08:48:35;;;;;;;4.57;2.83;;;;;;;;;;5040536;28;20037;-63
2021/10/20 08:51:22;;;;;;;5.10;3.30;;;;;;;;;;5060394;28;20031;-59
2021/10/20 08:54:08;;;;;;;8.18;2.90;;;;;;;;;;5044783;28;20111;-63
2021/10/20 08:56:53;;;;;;;4.70;2.95;;;;;;;;;;5060129;28;20127;-60
2021/10/20 08:59:38;;;;;;;3.85;2.85;;;;;;;;;;5064079;28;20395;-60
2021/10/20 09:02:24;;;;;;;6.20;3.05;;;;;;;;;;5061458;28;20177;-59
2021/10/20 09:05:10;;;;;;;5.57;3.45;;;;;;;;;;5055996;28;20033;-62
2021/10/20 09:07:56;;;;;;;5.78;3.13;;;;;;;;;;5055382;28;20488;-65
2021/10/20 09:10:44;;;;;;;4.57;3.13;;;;;;;;;;5065078;28;20515;-60
2021/10/20 09:13:32;;;;;;;6.18;2.97;;;;;;;;;;5054525;28;20037;-61
2021/10/20 09:16:18;;;;;;;5.03;2.75;;;;;;;;;;5070227;28;20526;-61
2021/10/20 09:19:35;;;;;;;6.63;3.67;;;;;;;;;;5052355;28;20037;-61
2021/10/20 09:22:20;;;;;;;5.18;3.10;;;;;;;;;;5053954;28;20167;-64
2021/10/20 09:25:05;;;;;;;9.38;2.97;;;;;;;;;;5062123;28;20365;-64
2021/10/20 09:27:52;;;;;;;8.35;2.88;;;;;;;;;;5051421;28;20037;-65
2021/10/20 09:30:38;;;;;;;4.43;2.60;;;;;;;;;;5062069;28;20020;-64
2021/10/20 09:33:24;;;;;;;5.80;3.65;;;;;;;;;;5063182;28;20538;-64
2021/10/20 09:36:13;;;;;;;6.03;3.42;;;;;;;;;;5065119;28;20426;-63
2021/10/20 09:38:59;;;;;;;;;;;;;;;;;;5062476;28;20082;-64
2021/10/20 09:41:44;;;;;;;4.38;3.30;;;;;;;;;;5071857;28;19975;-66
2021/10/20 09:44:29;;;;;;;6.38;3.38;;;;;;;;;;5062620;28;20029;-64
2021/10/20 09:47:14;;;;;;;4.57;3.70;;;;;;;;;;5053517;28;20569;-61
2021/10/20 09:49:59;;;;;;;10.68;5.93;;;;;;;;;;5059796;28;20464;-61
2021/10/20 09:52:50;;;;;;;7.53;4.40;;;;;;;;;;5043174;28;20068;-63
2021/10/20 09:55:35;;;;;;;5.65;3.72;;;;;;;;;;5059648;28;20388;-67
2021/10/20 09:58:21;;;;;;;5.15;3.33;;;;;;;;;;5046406;28;20506;-63
2021/10/20 10:01:06;;;;;;;6.30;3.38;;;;;;;;;;5059287;28;20079;-75
2021/10/20 10:03:52;;;;;;;4.70;3.67;;;;;;;;;;5063843;28;20111;-75
2021/10/20 10:06:39;;;;;;;7.78;2.70;;;;;;;;;;5054999;28;20032;-75
2021/10/20 10:09:24;;;;;;;5.35;3.10;;;;;;;;;;5056740;28;20533;-79
2021/10/20 10:12:19;;;;;;;4.38;3.00;;;;;;;;;;5064768;28;20075;-76
2021/10/20 10:15:07;;;;;;;4.18;3.15;;;;;;;;;;5048923;28;20047;-77
2021/10/20 10:17:55;;;;;;;3.17;2.63;;;;;;;;;;5040148;28;20051;-78
2021/10/20 10:20:41;;;;;;;5.70;3.15;;;;;;;;;;5052323;28;20079;-70
2021/10/20 10:23:30;;;;;;;6.28;2.75;;;;;;;;;;5061052;28;20020;-69
2021/10/20 10:26:15;;;;;;;4.90;2.20;;;;;;;;;;5057695;28;20028;-72
2021/10/20 10:29:04;;;;;;;3.75;2.55;;;;;;;;;;5079667;28;20029;-72
2021/10/20 10:31:50;;;;;;;4.50;2.65;;;;;;;;;;5057871;28;20020;-73
2021/10/20 10:34:37;;;;;;;6.45;2.63;;;;;;;;;;5070764;28;20467;-68
2021/10/20 10:37:26;;;;;;;5.25;2.85;;;;;;;;;;5064618;28;20091;-68
2021/10/20 10:40:19;;;;;;;4.97;2.75;;;;;;;;;;5063578;28;20482;-75
2021/10/20 10:43:06;;;;;;;5.45;2.60;;;;;;;;;;5061719;28;20031;-82
2021/10/20 10:45:54;;;;;;;4.88;2.78;;;;;;;;;;5057747;28;20110;-78
2021/10/20 10:48:44;;;;;;;6.47;2.50;;;;;;;;;;5048038;28;20029;-83
2021/10/20 10:51:30;;;;;;;6.68;2.40;;;;;;;;;;5054645;28;20074;-81
2021/10/20 10:54:30;;;;;;;4.22;2.70;;;;;;;;;;5057125;28;20097;-88
2021/10/20 10:57:15;;;;;;;2.95;2.40;;;;;;;;;;5056407;28;20542;-67
2021/10/20 11:00:24;;;;;;;5.18;2.78;;;;;;;;;;5057969;28;20112;-70
2021/10/20 11:03:09;;;;;;;5.85;3.47;;;;;;;;;;5052135;28;20468;-70
2021/10/20 11:05:59;;;;;;;5.28;2.55;;;;;;;;;;5054262;28;20391;-69
2021/10/20 11:08:45;;;;;;;2.15;1.95;;;;;;;;;;5046121;28;20036;-67
2021/10/20 11:11:30;;;;;;;4.60;2.95;;;;;;;;;;5063920;28;20025;-69
2021/10/20 11:14:16;;;;;;;3.85;2.30;;;;;;;;;;5058301;28;20109;-77
2021/10/20 11:17:05;;;;;;;4.55;2.58;;;;;;;;;;5063740;28;20032;-75
2021/10/20 11:19:51;;;;;;;6.53;3.10;;;;;;;;;;5056982;28;20029;-72
2021/10/20 11:22:37;;;;;;;3.67;2.20;;;;;;;;;;5056242;28;20111;-76
2021/10/20 11:25:23;;;;;;;4.30;2.03;;;;;;;;;;5041902;28;20511;-78
2021/10/20 11:28:09;;;;;;;4.68;2.58;;;;;;;;;;5033141;28;20605;-76
2021/10/20 11:31:23;;;;;;;3.92;2.05;;;;;;;;;;5029369;28;20122;-77
2021/10/20 11:34:16;;;;;;;4.32;2.70;;;;;;;;;;5046532;28;20208;-78
2021/10/20 11:37:01;;;;;;;3.50;2.30;;;;;;;;;;5040715;28;20036;-77
2021/10/20 11:39:52;;;;;;;5.47;2.10;;;;;;;;;;5033101;28;20503;-82
2021/10/20 11:42:40;;;;;;;5.05;2.50;;;;;;;;;;5050045;28;20475;-75
2021/10/20 11:45:27;;;;;;;3.15;2.20;;;;;;;;;;5039243;28;20412;-78
2021/10/20 11:48:18;;;;;;;4.47;2.40;;;;;;;;;;5038472;28;20037;-75
2021/10/20 11:51:04;;;;;;;2.97;2.47;;;;;;;;;;5054790;28;20045;-76
2021/10/20 11:53:49;;;;;;;3.47;2.40;;;;;;;;;;5057537;28;20021;-73
2021/10/20 11:56:34;;;;;;;7.78;2.30;;;;;;;;;;5051052;28;20068;-64
2021/10/20 11:59:20;;;;;;;3.53;2.25;;;;;;;;;;5041244;28;20115;-64
2021/10/20 12:02:06;;;;;;;3.22;1.90;;;;;;;;;;5055178;28;20105;-64
2021/10/20 12:04:56;;;;;;;2.88;2.15;;;;;;;;;;5057574;28;20260;-65
2021/10/20 12:07:46;;;;;;;3.97;2.10;;;;;;;;;;5051440;28;20495;-67
2021/10/20 12:10:32;;;;;;;4.78;2.58;;;;;;;;;;5050244;28;20036;-79
2021/10/20 12:13:17;;;;;;;3.83;2.20;;;;;;;;;;5052915;28;20567;-71
2021/10/20 12:16:02;;;;;;;8.77;2.60;;;;;;;;;;5063204;28;20471;-70
2021/10/20 12:18:48;;;;;;;3.97;2.22;;;;;;;;;;5054338;28;20123;-70
2021/10/20 12:21:34;;;;;;;3.95;2.30;;;;;;;;;;5055946;28;20040;-70
2021/10/20 12:24:21;;;;;;;3.35;2.47;;;;;;;;;;5063146;28;20039;-72
2021/10/20 12:27:08;;;;;;;4.88;2.42;;;;;;;;;;5055356;28;20159;-73
2021/10/20 12:29:55;;;;;;;2.65;1.95;;;;;;;;;;5041392;28;20112;-77
2021/10/20 12:32:40;;;;;;;3.38;2.17;;;;;;;;;;5060846;28;20184;-79
2021/10/20 12:35:26;;;;;;;3.20;2.13;;;;;;;;;;5061835;28;20029;-81
2021/10/20 12:38:11;;;;;;;5.47;2.70;;;;;;;;;;5045127;28;20039;-83
2021/10/20 12:41:05;;;;;;;3.03;2.30;;;;;;;;;;5053581;28;20079;-79
2021/10/20 12:43:52;;;;;;;6.75;2.72;;;;;;;;;;5043123;28;20600;-80
2021/10/20 12:46:42;;;;;;;5.20;2.40;;;;;;;;;;5052218;28;20397;-74
2021/10/20 12:49:51;;;;;;;3.33;2.17;;;;;;;;;;5052218;28;20043;-76
2021/10/20 12:52:37;;;;;;;6.00;2.55;;;;;;;;;;5058277;28;20033;-73
2021/10/20 12:55:23;;;;;;;3.55;2.10;;;;;;;;;;5049421;28;20030;-74
2021/10/20 12:58:16;;;;;;;3.85;2.50;;;;;;;;;;5051088;28;20020;-79
2021/10/20 13:01:01;;;;;;;4.20;2.22;;;;;;;;;;5066277;28;20475;-72
2021/10/20 13:03:47;;;;;;;5.63;2.55;;;;;;;;;;5064350;28;20025;-76
2021/10/20 13:06:32;;;;;;;9.10;2.55;;;;;;;;;;5042323;28;20461;-74
2021/10/20 13:09:18;;;;;;;3.05;2.33;;;;;;;;;;5043282;28;20040;-74
2021/10/20 13:12:03;;;;;;;3.80;2.20;;;;;;;;;;5062369;28;20186;-74
2021/10/20 13:14:48;;;;;;;5.55;2.20;;;;;;;;;;5064740;28;20025;-77
2021/10/20 13:17:38;;;;;;;3.88;2.25;;;;;;;;;;5049896;28;20156;-77
2021/10/20 13:20:24;;;;;;;4.20;2.47;;;;;;;;;;5053786;28;20037;-65
2021/10/20 13:23:10;;;;;;;3.60;2.03;;;;;;;;;;5058936;28;20494;-73
2021/10/20 13:25:55;;;;;;;5.00;2.47;;;;;;;;;;5067417;28;20470;-70
2021/10/20 13:28:40;;;;;;;6.72;2.33;;;;;;;;;;5059875;28;20028;-75
2021/10/20 13:31:25;;;;;;;3.85;2.53;;;;;;;;;;5057640;28;20296;-77
2021/10/20 13:34:11;;;;;;;6.45;2.53;;;;;;;;;;5059011;28;20037;-77
2021/10/20 13:36:58;;;;;;;7.53;2.40;;;;;;;;;;5060000;28;20028;-77
2021/10/20 13:39:43;;;;;;;4.88;2.72;;;;;;;;;;5059210;28;20032;-75
2021/10/20 13:42:28;;;;;;;4.85;2.35;;;;;;;;;;5063416;28;20067;-68
2021/10/20 13:45:14;;;;;;;6.18;2.60;;;;;;;;;;5059550;28;20116;-65
2021/10/20 13:47:59;;;;;;;5.00;2.88;;;;;;;;;;5055653;28;20508;-65
2021/10/20 13:50:45;;;;;;;6.35;2.70;;;;;;;;;;5059600;28;20055;-63
2021/10/20 13:53:30;;;;;;;6.82;2.70;;;;;;;;;;5059046;28;20037;-63
2021/10/20 13:56:16;;;;;;;3.80;2.25;;;;;;;;;;5055544;28;20403;-64
2021/10/20 13:59:01;;;;;;;3.42;2.30;;;;;;;;;;5058232;28;20036;-63
2021/10/20 14:01:46;;;;;;;3.78;2.38;;;;;;;;;;5063782;28;20043;-66
2021/10/20 14:04:32;;;;;;;12.75;2.67;;;;;;;;;;5062789;28;20024;-68
2021/10/20 14:07:18;;;;;;;4.50;2.28;;;;;;;;;;5074066;28;20129;-65
2021/10/20 14:10:04;;;;;;;4.22;2.38;;;;;;;;;;5074358;28;20025;-65
2021/10/20 14:12:49;;;;;;;2.65;2.30;;;;;;;;;;5044849;28;20044;-65
2021/10/20 14:15:35;;;;;;;6.20;3.33;;;;;;;;;;5052485;28;20106;-64
2021/10/20 14:18:23;;;;;;;3.72;2.10;;;;;;;;;;5057234;28;20379;-65
2021/10/20 14:21:08;;;;;;;4.57;2.50;;;;;;;;;;5071884;28;20032;-67
2021/10/20 14:23:53;;;;;;;4.90;2.40;;;;;;;;;;5057705;28;20025;-66
2021/10/20 14:26:39;;;;;;;6.40;2.70;;;;;;;;;;5061669;28;20047;-65
2021/10/20 14:29:24;;;;;;;4.43;2.58;;;;;;;;;;5053378;28;20488;-65
2021/10/20 14:32:10;;;;;;;5.90;2.83;;;;;;;;;;5057984;28;20017;-67
2021/10/20 14:34:57;;;;;;;3.95;2.95;;;;;;;;;;5061167;28;20548;-65
2021/10/20 14:37:42;;;;;;;4.85;2.67;;;;;;;;;;5057376;28;20424;-63
2021/10/20 14:40:27;;;;;;;4.18;2.47;;;;;;;;;;5061519;28;20386;-69
2021/10/20 14:43:13;;;;;;;4.82;2.80;;;;;;;;;;5069143;28;20021;-69
2021/10/20 14:45:58;;;;;;;4.10;2.72;;;;;;;;;;5055391;28;20138;-69
2021/10/20 14:48:46;;;;;;;6.30;2.83;;;;;;;;;;5053665;28;20040;-70
2021/10/20 14:51:32;;;;;;;4.43;2.40;;;;;;;;;;5052262;28;20036;-69
2021/10/20 14:54:18;;;;;;;4.38;2.38;;;;;;;;;;5054794;28;20083;-68
2021/10/20 14:57:06;;;;;;;4.18;2.53;;;;;;;;;;5057912;28;20113;-62
2021/10/20 14:59:51;;;;;;;3.95;2.08;;;;;;;;;;5061013;28;20487;-69
2021/10/20 15:02:36;;;;;;;4.78;2.55;;;;;;;;;;5059409;28;20054;-66
2021/10/20 15:05:23;;;;;;;6.93;2.60;;;;;;;;;;5053157;28;20417;-67
2021/10/20 15:08:09;;;;;;;5.95;2.38;;;;;;;;;;5045907;28;20116;-65
2021/10/20 15:10:56;;;;;;;5.97;2.35;;;;;;;;;;5078660;28;20032;-67
2021/10/20 15:13:45;;;;;;;5.03;2.38;;;;;;;;;;5059080;28;20079;-70
2021/10/20 15:16:30;;;;;;;5.40;2.30;;;;;;;;;;5064517;28;20044;-72
2021/10/20 15:22:20;;;;;;;5.70;2.50;;;;;;;;;;5054174;28;20021;-65
2021/10/20 15:25:05;;;;;;;5.57;2.60;;;;;;;;;;5074209;28;20467;-64
2021/10/20 15:27:51;;;;;;;5.38;2.50;;;;;;;;;;5059251;28;21064;-63
2021/10/20 15:30:37;;;;;;;4.28;2.63;;;;;;;;;;5064383;28;20446;-64
2021/10/20 15:33:23;;;;;;;3.75;2.38;;;;;;;;;;5059298;28;20021;-62
2021/10/20 15:36:08;;;;;;;3.28;2.35;;;;;;;;;;5065289;28;20033;-67
2021/10/20 15:38:53;;;;;;;4.13;2.50;;;;;;;;;;5059555;28;20064;-65
2021/10/20 15:41:39;;;;;;;4.53;2.53;;;;;;;;;;5068423;28;20029;-65
2021/10/20 15:44:24;;;;;;;5.22;2.60;;;;;;;;;;5058942;28;20449;-66
2021/10/20 15:47:09;;;;;;;5.75;2.97;;;;;;;;;;5061270;28;20492;-66
2021/10/20 15:49:55;;;;;;;4.13;2.55;;;;;;;;;;5059014;28;20540;-64
2021/10/20 15:52:40;;;;;;;7.03;3.08;;;;;;;;;;5065205;28;20033;-65
2021/10/20 15:55:25;;;;;;;4.32;2.97;;;;;;;;;;5063275;28;20052;-68
2021/10/20 15:58:11;;;;;;;7.82;3.05;;;;;;;;;;5063251;28;20036;-68
2021/10/20 16:00:56;;;;;;;5.05;2.80;;;;;;;;;;5063979;28;20491;-66
2021/10/20 16:03:43;;;;;;;4.07;2.90;;;;;;;;;;5062055;28;20126;-67
2021/10/20 16:06:29;;;;;;;5.65;2.95;;;;;;;;;;5062629;28;20385;-68
2021/10/20 16:09:14;;;;;;;6.25;2.88;;;;;;;;;;5064782;28;20016;-70
2021/10/20 16:12:00;;;;;;;7.45;3.13;;;;;;;;;;5067150;28;20025;-69
2021/10/20 16:14:45;;;;;;;6.78;3.22;;;;;;;;;;5064165;28;20035;-60
2021/10/20 16:17:30;;;;;;;5.45;3.20;;;;;;;;;;5061690;28;20183;-61
2021/10/20 16:20:16;;;;;;;5.93;3.08;;;;;;;;;;5062117;28;20024;-62
2021/10/20 16:23:01;;;;;;;6.53;3.30;;;;;;;;;;5062855;28;20028;-60
2021/10/20 16:25:46;;;;;;;5.05;3.13;;;;;;;;;;5062061;28;20436;-61
2021/10/20 16:28:33;;;;;;;4.95;3.13;;;;;;;;;;5062379;28;20036;-61
2021/10/20 16:31:18;;;;;;;6.57;3.20;;;;;;;;;;5066125;28;20027;-70
2021/10/20 16:34:03;;;;;;;6.60;3.35;;;;;;;;;;5066655;28;20070;-70
2021/10/20 16:36:49;;;;;;;4.78;3.15;;;;;;;;;;5063947;28;20279;-70
2021/10/20 16:39:34;;;;;;;5.40;3.35;;;;;;;;;;5061481;28;20360;-66